Time;durP1;ratioP1;P1;durP2;ratioP2;P2;SDS_P1;SDS_P2;PMS_P1;PMS_P2;Temp;Humidity;BMP_temperature;BMP_pressure;BME280_temperature;BME280_humidity;BME280_pressure;Samples;Min_cycle;Max_cycle;Signal;HPM_P1;HPM_P2
2021/06/23 00:00:44;;;;;;;8.60;2.42;;;17.80;78.40;;;;;;6119582;23;20013;-67
2021/06/23 00:03:51;;;;;;;5.90;1.98;;;17.80;78.40;;;;;;6119703;23;20057;-67
2021/06/23 00:06:57;;;;;;;8.93;2.80;;;17.80;78.40;;;;;;6119976;23;20014;-67
2021/06/23 00:10:03;;;;;;;7.35;1.75;;;17.80;78.40;;;;;;6120589;23;20040;-67
2021/06/23 00:13:09;;;;;;;5.53;1.50;;;17.80;78.50;;;;;;6121359;23;20820;-67
2021/06/23 00:16:15;;;;;;;6.38;1.40;;;17.80;78.40;;;;;;6121044;23;20045;-67
2021/06/23 00:19:21;;;;;;;5.10;2.13;;;17.70;78.50;;;;;;6119985;23;20299;-68
2021/06/23 00:22:27;;;;;;;4.55;1.90;;;17.80;78.60;;;;;;6121324;23;20006;-67
2021/06/23 00:25:33;;;;;;;9.15;1.75;;;17.80;78.50;;;;;;6121243;23;20034;-67
2021/06/23 00:28:39;;;;;;;4.50;1.83;;;17.80;78.60;;;;;;6119786;23;20065;-68
2021/06/23 00:31:45;;;;;;;8.90;1.30;;;17.70;78.60;;;;;;6120668;23;20448;-67
2021/06/23 00:34:51;;;;;;;7.65;2.30;;;17.80;78.60;;;;;;6121546;23;20077;-67
2021/06/23 00:37:57;;;;;;;4.47;1.45;;;17.70;78.60;;;;;;6121306;23;20075;-67
2021/06/23 00:40:24;;;;;;;5.47;1.70;;;17.80;78.60;;;;;;6120166;23;20077;-67
2021/06/23 00:42:52;;;;;;;3.22;1.38;;;17.70;78.60;;;;;;6121136;23;20010;-67
2021/06/23 00:45:20;;;;;;;5.93;1.50;;;17.70;78.50;;;;;;6120302;23;20060;-66
2021/06/23 00:47:48;;;;;;;4.40;2.65;;;17.70;78.60;;;;;;6121243;23;19998;-67
2021/06/23 00:50:16;;;;;;;3.53;1.30;;;17.70;78.60;;;;;;6120826;23;20002;-67
2021/06/23 00:52:44;;;;;;;7.38;2.15;;;17.70;78.60;;;;;;6121378;23;20009;-66
2021/06/23 00:55:20;;;;;;;6.80;1.92;;;17.70;78.70;;;;;;6121414;23;20511;-67
2021/06/23 00:57:48;;;;;;;7.60;2.38;;;17.70;78.60;;;;;;6121734;23;20008;-67
2021/06/23 01:00:18;;;;;;;3.97;2.03;;;17.70;78.70;;;;;;6122930;23;20002;-69
2021/06/23 01:02:46;;;;;;;5.32;1.98;;;17.70;78.70;;;;;;6121800;23;20033;-68
2021/06/23 01:05:13;;;;;;;4.53;2.30;;;17.70;78.70;;;;;;6122951;23;20009;-67
2021/06/23 01:07:39;;;;;;;4.13;1.77;;;17.70;78.80;;;;;;6122406;23;20028;-68
2021/06/23 01:10:06;;;;;;;10.02;2.30;;;17.70;78.90;;;;;;6122185;23;20022;-68
2021/06/23 01:12:49;;;;;;;3.90;1.88;;;17.70;78.90;;;;;;6123115;23;20013;-67
2021/06/23 01:15:15;;;;;;;7.68;2.03;;;17.70;78.90;;;;;;6121716;23;20009;-67
2021/06/23 01:17:42;;;;;;;6.10;1.52;;;17.70;78.90;;;;;;6122335;23;20080;-67
2021/06/23 01:20:12;;;;;;;5.05;1.98;;;17.70;78.90;;;;;;6121617;23;20009;-68
2021/06/23 01:22:41;;;;;;;6.78;2.08;;;17.70;78.90;;;;;;6119271;23;20363;-67
2021/06/23 01:25:12;;;;;;;8.35;1.88;;;17.70;78.90;;;;;;6122560;23;19998;-68
2021/06/23 01:27:41;;;;;;;7.78;2.03;;;17.60;78.80;;;;;;6121774;23;20065;-67
2021/06/23 01:30:09;;;;;;;9.77;2.63;;;17.60;78.80;;;;;;6123391;23;20497;-67
2021/06/23 01:32:37;;;;;;;11.18;2.28;;;17.60;78.90;;;;;;6121490;23;20445;-67
2021/06/23 01:35:04;;;;;;;9.93;2.72;;;17.60;78.90;;;;;;6123028;23;20009;-67
2021/06/23 01:37:31;;;;;;;7.35;2.08;;;17.60;79.00;;;;;;6121928;23;20446;-67
2021/06/23 01:40:00;;;;;;;8.15;2.10;;;17.60;79.00;;;;;;6122231;23;20366;-67
2021/06/23 01:42:27;;;;;;;7.88;2.45;;;17.60;79.00;;;;;;6122498;23;20009;-67
2021/06/23 01:44:54;;;;;;;7.22;3.25;;;17.60;78.90;;;;;;6121729;23;20029;-67
2021/06/23 01:47:21;;;;;;;9.63;3.40;;;17.60;79.50;;;;;;6122429;23;20013;-67
2021/06/23 01:49:47;;;;;;;8.80;3.00;;;17.60;78.80;;;;;;6121063;23;19998;-67
2021/06/23 01:52:14;;;;;;;9.82;2.50;;;17.60;78.70;;;;;;6122342;23;20017;-67
2021/06/23 01:54:41;;;;;;;9.18;3.08;;;17.60;78.70;;;;;;6121439;23;20005;-67
2021/06/23 01:57:14;;;;;;;11.45;2.20;;;17.60;78.70;;;;;;6122227;23;20010;-67
2021/06/23 01:59:42;;;;;;;11.60;2.95;;;17.50;78.60;;;;;;6122192;23;20010;-68
2021/06/23 02:02:28;;;;;;;9.82;2.38;;;17.50;78.60;;;;;;6121325;23;20065;-67
2021/06/23 02:05:14;;;;;;;4.40;2.20;;;17.50;78.60;;;;;;6122312;23;20137;-67
2021/06/23 02:07:54;;;;;;;8.27;2.33;;;17.50;78.70;;;;;;6121720;23;20017;-67
2021/06/23 02:10:39;;;;;;;8.25;2.90;;;17.50;78.70;;;;;;6122019;23;20437;-67
2021/06/23 02:13:24;;;;;;;8.32;1.85;;;17.50;78.70;;;;;;6122595;23;20002;-67
2021/06/23 02:15:51;;;;;;;6.22;2.30;;;17.60;78.80;;;;;;6121099;23;20006;-68
2021/06/23 02:18:20;;;;;;;7.78;2.92;;;17.50;78.70;;;;;;6122449;23;20005;-68
2021/06/23 02:20:51;;;;;;;6.03;2.15;;;17.50;78.70;;;;;;6121169;23;20347;-68
2021/06/23 02:23:17;;;;;;;5.32;1.73;;;17.50;78.80;;;;;;6122013;23;20452;-68
2021/06/23 02:25:44;;;;;;;4.57;1.42;;;17.50;78.80;;;;;;6122575;23;20002;-67
2021/06/23 02:28:12;;;;;;;12.82;6.78;;;17.50;78.80;;;;;;6121244;23;20010;-67
2021/06/23 02:30:39;;;;;;;9.40;7.30;;;17.50;78.70;;;;;;6122388;23;20537;-68
2021/06/23 02:33:08;;;;;;;10.85;6.00;;;17.50;78.70;;;;;;6120756;23;20017;-68
2021/06/23 02:35:36;;;;;;;12.68;5.35;;;17.50;78.70;;;;;;6122155;23;20008;-68
2021/06/23 02:38:05;;;;;;;10.68;4.38;;;17.50;78.70;;;;;;6121056;23;20077;-68
2021/06/23 02:40:32;;;;;;;12.07;3.92;;;17.50;78.70;;;;;;6121798;23;20339;-69
2021/06/23 02:43:00;;;;;;;10.25;3.05;;;17.50;78.60;;;;;;6121971;23;19998;-69
2021/06/23 02:45:28;;;;;;;7.22;3.28;;;17.50;78.60;;;;;;6121089;23;20009;-68
2021/06/23 02:47:55;;;;;;;9.20;2.33;;;17.50;78.60;;;;;;6122454;23;20002;-68
2021/06/23 02:50:22;;;;;;;5.68;2.53;;;17.50;78.50;;;;;;6120860;23;20002;-68
2021/06/23 02:52:49;;;;;;;6.68;2.53;;;17.50;78.60;;;;;;6122021;23;20418;-69
2021/06/23 02:55:22;;;;;;;4.97;1.98;;;17.50;78.50;;;;;;6120794;23;20415;-69
2021/06/23 02:57:49;;;;;;;7.38;2.20;;;17.50;78.50;;;;;;6121821;23;20360;-68
2021/06/23 03:00:16;;;;;;;5.65;2.58;;;17.50;78.40;;;;;;6121775;23;20085;-69
2021/06/23 03:02:42;;;;;;;7.63;1.98;;;17.40;78.40;;;;;;6120920;23;20032;-68
2021/06/23 03:05:10;;;;;;;4.07;2.03;;;17.40;78.30;;;;;;6122056;23;20024;-68
2021/06/23 03:07:36;;;;;;;10.20;2.72;;;17.40;78.30;;;;;;6120491;23;20014;-68
2021/06/23 03:10:42;;;;;;;8.80;2.78;;;17.40;78.30;;;;;;6119722;23;20093;-68
2021/06/23 03:13:48;;;;;;;5.97;1.80;;;17.40;78.30;;;;;;6120638;23;20755;-67
2021/06/23 03:16:15;;;;;;;8.45;2.78;;;17.40;78.30;;;;;;6120405;23;20311;-68
2021/06/23 03:18:41;;;;;;;6.00;2.15;;;17.40;78.30;;;;;;6121838;23;20006;-67
2021/06/23 03:21:09;;;;;;;7.75;2.38;;;17.40;78.20;;;;;;6119651;23;20002;-66
2021/06/23 03:23:36;;;;;;;10.48;5.47;;;17.40;78.30;;;;;;6121266;23;20002;-67
2021/06/23 03:26:02;;;;;;;9.85;5.32;;;17.40;78.40;;;;;;6121330;23;20006;-67
2021/06/23 03:28:29;;;;;;;12.68;4.85;;;17.40;78.40;;;;;;6121433;23;20081;-67
2021/06/23 03:30:55;;;;;;;13.10;4.47;;;17.40;78.40;;;;;;6121016;23;20057;-67
2021/06/23 03:33:22;;;;;;;13.68;4.40;;;17.40;78.50;;;;;;6120269;23;20013;-68
2021/06/23 03:35:49;;;;;;;7.88;2.90;;;17.40;78.40;;;;;;6121146;23;20017;-67
2021/06/23 03:38:15;;;;;;;11.93;3.35;;;17.40;78.40;;;;;;6120292;23;19998;-68
2021/06/23 03:40:41;;;;;;;13.63;3.75;;;17.40;78.40;;;;;;6121051;23;20367;-67
2021/06/23 03:43:08;;;;;;;9.73;3.40;;;17.40;78.50;;;;;;6119855;23;20002;-67
2021/06/23 03:45:34;;;;;;;8.63;2.80;;;17.40;78.60;;;;;;6121138;23;20422;-68
2021/06/23 03:48:01;;;;;;;7.22;2.70;;;17.40;78.60;;;;;;6121509;23;20002;-71
2021/06/23 03:50:29;;;;;;;8.43;2.50;;;17.40;78.60;;;;;;6120371;23;19998;-69
2021/06/23 03:52:56;;;;;;;6.22;2.22;;;17.40;78.70;;;;;;6121529;23;20410;-70
2021/06/23 03:55:26;;;;;;;7.10;2.97;;;17.40;78.70;;;;;;6120277;23;20032;-67
2021/06/23 03:57:53;;;;;;;7.47;2.67;;;17.40;78.70;;;;;;6121458;23;20002;-68
2021/06/23 04:00:23;;;;;;;12.52;3.85;;;17.40;78.70;;;;;;6120927;23;20033;-68
2021/06/23 04:02:50;;;;;;;26.15;19.38;;;17.40;78.80;;;;;;6121023;23;20006;-68
2021/06/23 04:05:16;;;;;;;25.65;20.20;;;17.40;78.70;;;;;;6121618;23;20002;-67
2021/06/23 04:07:43;;;;;;;19.67;15.23;;;17.40;78.60;;;;;;6120586;23;20021;-67
2021/06/23 04:10:11;;;;;;;19.05;12.20;;;17.40;78.60;;;;;;6121213;23;20017;-68
2021/06/23 04:12:38;;;;;;;13.18;9.38;;;17.40;78.50;;;;;;6120524;23;20032;-69
2021/06/23 04:15:06;;;;;;;12.65;6.68;;;17.40;78.40;;;;;;6121890;23;20398;-68
2021/06/23 04:17:33;;;;;;;9.98;6.15;;;17.40;79.00;;;;;;6120445;23;20005;-70
2021/06/23 04:19:59;;;;;;;14.60;6.30;;;17.40;78.30;;;;;;6121167;23;20469;-69
2021/06/23 04:22:26;;;;;;;9.20;3.85;;;17.30;78.20;;;;;;6120476;23;20009;-70
2021/06/23 04:24:53;;;;;;;10.98;4.45;;;17.30;78.20;;;;;;6120535;23;20319;-68
2021/06/23 04:27:21;;;;;;;13.98;7.13;;;17.30;78.20;;;;;;6123317;23;20013;-68
2021/06/23 04:29:48;;;;;;;17.13;6.93;;;17.30;78.30;;;;;;6122811;23;20002;-67
2021/06/23 04:32:15;;;;;;;13.32;5.40;;;17.30;78.30;;;;;;6123820;23;20008;-68
2021/06/23 04:34:42;;;;;;;10.02;4.80;;;17.30;78.20;;;;;;6122421;23;20021;-68
2021/06/23 04:37:08;;;;;;;11.38;4.90;;;17.30;78.10;;;;;;6123991;23;20002;-69
2021/06/23 04:39:35;;;;;;;9.00;3.60;;;17.30;78.10;;;;;;6123146;23;20009;-67
2021/06/23 04:42:02;;;;;;;7.88;4.00;;;17.20;78.00;;;;;;6122372;23;20021;-68
2021/06/23 04:44:28;;;;;;;8.60;3.38;;;17.20;78.00;;;;;;6123305;23;20006;-68
2021/06/23 04:46:55;;;;;;;7.72;2.83;;;17.20;78.00;;;;;;6121910;23;20015;-67
2021/06/23 04:49:21;;;;;;;9.95;2.88;;;17.20;77.90;;;;;;6123233;23;20002;-68
2021/06/23 04:51:48;;;;;;;8.55;2.88;;;17.20;78.00;;;;;;6121967;23;20009;-67
2021/06/23 04:54:14;;;;;;;10.15;2.70;;;17.20;78.30;;;;;;6123317;23;20002;-67
2021/06/23 04:56:41;;;;;;;12.15;2.50;;;17.20;78.10;;;;;;6122164;23;20064;-68
2021/06/23 04:59:07;;;;;;;8.90;2.83;;;17.20;78.10;;;;;;6122710;23;20002;-67
2021/06/23 05:01:34;;;;;;;8.73;2.85;;;17.10;78.10;;;;;;6122848;23;19998;-67
2021/06/23 05:04:00;;;;;;;4.43;3.00;;;17.10;78.10;;;;;;6121805;23;20002;-67
2021/06/23 05:06:26;;;;;;;10.65;2.50;;;17.10;78.10;;;;;;6122917;23;20093;-67
2021/06/23 05:08:53;;;;;;;5.85;2.78;;;17.10;78.10;;;;;;6121585;23;20014;-67
2021/06/23 05:11:19;;;;;;;9.13;2.50;;;17.10;78.20;;;;;;6122886;23;20054;-67
2021/06/23 05:13:46;;;;;;;9.57;2.40;;;17.10;78.10;;;;;;6120158;23;20009;-68
2021/06/23 05:16:12;;;;;;;10.40;3.03;;;17.10;78.20;;;;;;6121714;23;20483;-67
2021/06/23 05:18:39;;;;;;;8.48;2.28;;;17.10;78.20;;;;;;6119340;23;20330;-67
2021/06/23 05:21:06;;;;;;;9.27;3.30;;;17.10;78.20;;;;;;6120593;23;19994;-67
2021/06/23 05:23:32;;;;;;;12.10;2.78;;;17.10;78.20;;;;;;6121754;23;20453;-67
2021/06/23 05:25:59;;;;;;;8.40;2.50;;;17.00;78.20;;;;;;6120012;23;20010;-67
2021/06/23 05:28:26;;;;;;;8.52;2.75;;;17.10;78.30;;;;;;6121416;23;19994;-67
2021/06/23 05:30:52;;;;;;;6.60;3.97;;;17.10;78.40;;;;;;6120038;23;20009;-68
2021/06/23 05:33:19;;;;;;;9.60;2.70;;;17.10;78.40;;;;;;6121851;23;20017;-67
2021/06/23 05:35:45;;;;;;;7.95;3.15;;;17.10;78.50;;;;;;6120515;23;20030;-67
2021/06/23 05:38:12;;;;;;;9.25;3.10;;;17.10;78.50;;;;;;6120119;23;20006;-67
2021/06/23 05:40:39;;;;;;;8.93;2.40;;;17.10;78.50;;;;;;6121399;23;20002;-67
2021/06/23 05:43:06;;;;;;;7.85;2.47;;;17.10;78.60;;;;;;6119983;23;20311;-68
2021/06/23 05:45:32;;;;;;;6.68;3.17;;;17.10;78.70;;;;;;6122653;23;20030;-67
2021/06/23 05:47:59;;;;;;;6.75;3.58;;;17.10;78.70;;;;;;6121955;23;20330;-67
2021/06/23 05:50:25;;;;;;;5.68;3.10;;;17.10;78.80;;;;;;6122629;23;20002;-67
2021/06/23 05:52:51;;;;;;;7.25;2.85;;;17.10;78.90;;;;;;6121704;23;20002;-67
2021/06/23 05:55:21;;;;;;;6.70;2.80;;;17.10;79.00;;;;;;6122291;23;20006;-67
2021/06/23 05:57:54;;;;;;;3.70;2.58;;;17.10;79.20;;;;;;6122684;23;20030;-67
2021/06/23 06:00:22;;;;;;;10.23;3.10;;;17.10;79.20;;;;;;6121326;23;19998;-67
2021/06/23 06:02:49;;;;;;;9.77;3.92;;;17.10;79.30;;;;;;6122456;23;20456;-68
2021/06/23 06:05:16;;;;;;;8.93;3.03;;;17.10;79.30;;;;;;6121571;23;20028;-65
2021/06/23 06:07:43;;;;;;;9.30;3.95;;;17.10;79.50;;;;;;6122454;23;20016;-67
2021/06/23 06:10:11;;;;;;;7.78;3.60;;;17.10;79.60;;;;;;6121156;23;20037;-67
2021/06/23 06:12:40;;;;;;;11.05;3.92;;;17.10;79.60;;;;;;6092857;23;20030;-67
2021/06/23 06:15:07;;;;;;;6.95;3.33;;;17.10;79.60;;;;;;6091293;23;20312;-67
2021/06/23 06:17:34;;;;;;;8.75;3.45;;;17.10;79.60;;;;;;6092413;23;20006;-67
2021/06/23 06:20:01;;;;;;;9.45;3.50;;;17.10;79.70;;;;;;6093320;23;20054;-67
2021/06/23 06:22:28;;;;;;;6.93;2.80;;;17.10;79.70;;;;;;6091820;23;20331;-67
2021/06/23 06:24:55;;;;;;;10.35;3.75;;;17.10;79.70;;;;;;6093429;23;19998;-67
2021/06/23 06:27:21;;;;;;;9.65;4.28;;;17.10;79.80;;;;;;6091926;23;20014;-67
2021/06/23 06:29:48;;;;;;;10.10;4.35;;;17.10;79.80;;;;;;6093075;23;20009;-67
2021/06/23 06:32:14;;;;;;;7.20;3.80;;;17.10;79.90;;;;;;6092433;23;20009;-67
2021/06/23 06:34:41;;;;;;;9.65;3.05;;;17.10;80.60;;;;;;6092913;23;20013;-67
2021/06/23 06:37:07;;;;;;;12.95;4.03;;;17.10;80.00;;;;;;6093447;23;20013;-67
2021/06/23 06:39:34;;;;;;;7.50;3.17;;;17.10;80.00;;;;;;6089813;23;20401;-67
2021/06/23 06:42:00;;;;;;;7.40;2.70;;;17.10;80.00;;;;;;6093048;23;20003;-67
2021/06/23 06:44:30;;;;;;;7.50;3.03;;;17.10;80.00;;;;;;6091393;23;20423;-67
2021/06/23 06:46:57;;;;;;;10.35;3.88;;;17.10;80.00;;;;;;6092731;23;20018;-68
2021/06/23 06:49:27;;;;;;;13.43;4.60;;;17.10;80.10;;;;;;6091712;23;20297;-68
2021/06/23 06:51:58;;;;;;;12.43;5.07;;;17.10;80.20;;;;;;6092316;23;20005;-66
2021/06/23 06:54:29;;;;;;;12.02;3.92;;;17.10;80.30;;;;;;6092934;23;20065;-67
2021/06/23 06:56:56;;;;;;;12.18;4.75;;;17.10;80.40;;;;;;6091373;23;20009;-66
2021/06/23 06:59:23;;;;;;;14.63;4.80;;;17.10;80.40;;;;;;6093096;23;20006;-67
2021/06/23 07:01:50;;;;;;;12.13;5.10;;;17.10;80.50;;;;;;6091356;23;20053;-68
2021/06/23 07:04:17;;;;;;;12.60;4.47;;;17.10;80.70;;;;;;6092950;23;20061;-68
2021/06/23 07:06:44;;;;;;;12.57;5.40;;;17.10;80.90;;;;;;6092037;23;20014;-68
2021/06/23 07:09:12;;;;;;;10.77;4.28;;;17.10;81.00;;;;;;6092093;23;20010;-68
2021/06/23 07:11:39;;;;;;;9.85;4.18;;;17.10;81.10;;;;;;6092714;23;20006;-67
2021/06/23 07:14:06;;;;;;;15.85;5.18;;;17.10;81.20;;;;;;6091529;23;20176;-67
2021/06/23 07:16:32;;;;;;;16.35;4.78;;;17.10;81.40;;;;;;6093145;23;20003;-66
2021/06/23 07:18:59;;;;;;;10.05;4.88;;;17.10;81.50;;;;;;6091646;23;20006;-67
2021/06/23 07:21:26;;;;;;;13.48;4.82;;;17.10;81.60;;;;;;6092874;23;20064;-67
2021/06/23 07:23:58;;;;;;;9.25;3.55;;;17.10;81.70;;;;;;6091584;23;20041;-67
2021/06/23 07:26:29;;;;;;;11.90;3.17;;;17.10;81.90;;;;;;6091897;23;20444;-67
2021/06/23 07:28:56;;;;;;;6.75;2.75;;;17.10;82.00;;;;;;6092659;23;20061;-67
2021/06/23 07:31:38;;;;;;;9.07;3.85;;;17.10;82.00;;;;;;6091572;23;20022;-66
2021/06/23 07:36:36;;;;;;;10.75;3.67;;;17.20;82.40;;;;;;6091809;23;20006;-66
2021/06/23 07:39:09;;;;;;;10.38;4.28;;;17.20;82.50;;;;;;6092392;23;20011;-67
2021/06/23 07:41:37;;;;;;;12.07;4.13;;;17.20;82.60;;;;;;6092267;23;20335;-66
2021/06/23 07:44:05;;;;;;;12.05;4.07;;;17.20;82.70;;;;;;6091434;23;20426;-66
2021/06/23 07:46:38;;;;;;;13.43;4.72;;;17.20;82.80;;;;;;6092181;23;20010;-66
2021/06/23 07:49:09;;;;;;;13.15;5.35;;;17.20;82.90;;;;;;6091074;23;20013;-67
2021/06/23 07:51:46;;;;;;;15.02;5.45;;;17.20;83.40;;;;;;6092715;23;19998;-67
2021/06/23 08:10:04;;;;;;;14.48;4.30;;;17.30;83.60;;;;;;6091681;23;20069;-66
2021/06/23 08:12:40;;;;;;;18.75;5.43;;;17.30;83.60;;;;;;6092284;23;20003;-67
2021/06/23 08:15:07;;;;;;;13.73;4.95;;;17.40;83.70;;;;;;6091253;23;20002;-67
2021/06/23 08:17:34;;;;;;;15.60;5.63;;;17.40;83.70;;;;;;6092314;23;20046;-67
2021/06/23 08:20:00;;;;;;;13.52;6.35;;;17.40;83.70;;;;;;6091613;23;20036;-67
2021/06/23 08:22:27;;;;;;;17.25;6.13;;;17.40;83.70;;;;;;6092301;23;20435;-67
2021/06/23 08:24:53;;;;;;;17.77;6.50;;;17.40;83.70;;;;;;6092126;23;20073;-67
2021/06/23 08:27:20;;;;;;;17.17;6.13;;;17.40;83.70;;;;;;6090939;23;20021;-67
2021/06/23 08:29:46;;;;;;;12.75;6.30;;;17.40;83.80;;;;;;6092197;23;20002;-67
2021/06/23 08:32:13;;;;;;;16.20;6.07;;;17.50;83.80;;;;;;6090722;23;20006;-67
2021/06/23 08:34:39;;;;;;;13.73;6.35;;;17.50;83.80;;;;;;6092518;23;20006;-67
2021/06/23 08:37:06;;;;;;;19.73;5.88;;;17.50;83.80;;;;;;6090861;23;20003;-67
2021/06/23 08:39:32;;;;;;;18.45;6.63;;;17.50;83.80;;;;;;6092124;23;20495;-67
2021/06/23 08:41:59;;;;;;;16.10;5.28;;;17.50;83.80;;;;;;6091642;23;20013;-67
2021/06/23 08:44:25;;;;;;;21.70;6.35;;;17.50;83.80;;;;;;6091648;23;20085;-67
2021/06/23 08:46:53;;;;;;;19.80;6.18;;;17.50;83.80;;;;;;6092612;23;20431;-67
2021/06/23 08:49:20;;;;;;;20.23;5.57;;;17.60;83.80;;;;;;6091433;23;20006;-67
2021/06/23 08:51:47;;;;;;;13.98;6.65;;;17.60;84.50;;;;;;6092765;23;19998;-67
2021/06/23 08:54:14;;;;;;;15.63;6.32;;;17.60;83.80;;;;;;6091372;23;20009;-68
2021/06/23 08:56:40;;;;;;;22.45;6.32;;;17.60;83.80;;;;;;6092772;23;20037;-67
2021/06/23 08:59:07;;;;;;;22.83;6.90;;;17.70;83.80;;;;;;6091778;23;20007;-67
2021/06/23 09:01:34;;;;;;;18.52;7.03;;;17.70;83.80;;;;;;6091575;23;19998;-68
2021/06/23 09:04:07;;;;;;;18.95;6.40;;;17.70;83.80;;;;;;6092198;23;20003;-67
2021/06/23 09:07:00;;;;;;;21.90;6.65;;;17.80;83.80;;;;;;6091569;23;20072;-67
2021/06/23 09:09:35;;;;;;;19.40;6.80;;;17.80;83.70;;;;;;6091988;23;20078;-65
2021/06/23 09:12:08;;;;;;;15.70;4.47;;;17.80;83.40;;;;;;6091416;23;20044;-66
2021/06/23 09:14:39;;;;;;;9.23;2.97;;;17.80;83.00;;;;;;6093317;23;20026;-65
2021/06/23 09:17:08;;;;;;;11.82;2.50;;;17.80;82.40;;;;;;6093769;23;20003;-65
2021/06/23 09:19:59;;;;;;;7.10;3.03;;;17.80;81.90;;;;;;6092843;23;20544;-66
2021/06/23 09:22:47;;;;;;;6.20;1.85;;;17.70;81.30;;;;;;6078476;23;20003;-66
2021/06/23 09:25:13;;;;;;;6.22;2.90;;;17.60;80.50;;;;;;6093193;23;20007;-66
2021/06/23 09:27:52;;;;;;;4.10;1.42;;;17.60;80.00;;;;;;6092954;23;20101;-66
2021/06/23 09:30:25;;;;;;;3.97;1.15;;;17.60;79.60;;;;;;6093742;23;20085;-66
2021/06/23 09:33:15;;;;;;;4.00;1.10;;;17.50;79.10;;;;;;6092647;23;20007;-66
2021/06/23 09:35:55;;;;;;;2.88;0.88;;;17.50;79.00;;;;;;6093955;23;20011;-66
2021/06/23 09:38:36;;;;;;;3.17;1.27;;;17.50;78.90;;;;;;6093149;23;20010;-66
2021/06/23 09:41:05;;;;;;;5.35;1.70;;;17.50;78.90;;;;;;6092342;23;20003;-67
2021/06/23 09:43:40;;;;;;;4.20;1.52;;;17.50;79.00;;;;;;6093853;23;20007;-66
2021/06/23 09:46:13;;;;;;;5.88;2.63;;;17.50;79.00;;;;;;6092430;23;20018;-66
2021/06/23 09:48:40;;;;;;;6.75;1.30;;;17.50;79.20;;;;;;6093441;23;20010;-66
2021/06/23 09:51:20;;;;;;;4.93;2.03;;;17.50;79.40;;;;;;6093136;23;20489;-67
2021/06/23 09:53:48;;;;;;;6.40;1.40;;;17.50;79.40;;;;;;6092566;23;20103;-66
2021/06/23 09:56:47;;;;;;;3.13;1.17;;;17.60;79.60;;;;;;6093322;23;20006;-67
2021/06/23 09:59:41;;;;;;;2.00;1.05;;;17.60;79.70;;;;;;6070359;23;20015;-67
2021/06/23 10:02:24;;;;;;;5.25;1.10;;;17.70;79.80;;;;;;6093104;23;20057;-67
2021/06/23 10:04:51;;;;;;;4.95;1.50;;;17.80;79.80;;;;;;6091527;23;20332;-67
2021/06/23 10:07:37;;;;;;;5.82;1.50;;;17.80;79.60;;;;;;6091944;23;20046;-67
2021/06/23 10:10:05;;;;;;;9.32;2.92;;;17.80;79.20;;;;;;6093199;23;20018;-67
2021/06/23 10:12:32;;;;;;;8.02;2.10;;;17.90;78.90;;;;;;6092415;23;20089;-67
2021/06/23 10:15:38;;;;;;;6.55;2.15;;;17.90;78.50;;;;;;6092971;23;20058;-67
2021/06/23 10:18:44;;;;;;;9.88;3.05;;;18.00;78.40;;;;;;6093477;23;20384;-67
2021/06/23 10:21:50;;;;;;;7.72;2.83;;;18.10;78.30;;;;;;6092867;23;20080;-68
2021/06/23 10:24:56;;;;;;;9.82;2.42;;;18.20;78.10;;;;;;6092317;23;20011;-68
2021/06/23 10:28:02;;;;;;;7.15;3.10;;;18.30;77.70;;;;;;6093018;23;20343;-67
2021/06/23 10:31:11;;;;;;;8.90;2.58;;;18.40;77.40;;;;;;6092973;23;20009;-67
2021/06/23 10:34:17;;;;;;;7.95;3.17;;;18.40;77.10;;;;;;6091906;23;20009;-67
2021/06/23 10:37:23;;;;;;;8.32;2.08;;;18.50;77.00;;;;;;6092758;23;20050;-68
2021/06/23 10:40:30;;;;;;;7.60;2.10;;;18.50;76.80;;;;;;6092939;23;20007;-68
2021/06/23 10:43:16;;;;;;;;;;;18.50;76.70;;;;;;6092560;23;20009;-68
2021/06/23 10:46:22;;;;;;;6.85;1.60;;;18.50;76.70;;;;;;6091528;23;19928;-68
2021/06/23 10:49:35;;;;;;;4.53;1.60;;;18.50;76.50;;;;;;6092983;23;20073;-68
2021/06/23 10:52:20;;;;;;;9.07;2.03;;;18.60;76.60;;;;;;6092725;23;20383;-68
2021/06/23 10:55:26;;;;;;;4.90;1.63;;;18.70;76.60;;;;;;6091689;23;19998;-68
2021/06/23 10:58:32;;;;;;;3.88;1.35;;;18.70;76.30;;;;;;6077083;23;20003;-68
2021/06/23 11:01:48;;;;;;;2.38;1.75;;;18.70;75.90;;;;;;6092650;23;20070;-68
2021/06/23 11:04:52;;;;;;;2.67;1.05;;;18.80;75.20;;;;;;6091244;23;20064;-68
2021/06/23 11:07:51;;;;;;;2.72;1.00;;;18.80;74.60;;;;;;6091744;23;20014;-68
2021/06/23 11:10:57;;;;;;;3.65;1.25;;;18.80;74.20;;;;;;6029684;23;20018;-68
2021/06/23 11:14:03;;;;;;;2.38;1.02;;;18.80;73.10;;;;;;6092279;23;20365;-68
2021/06/23 11:17:09;;;;;;;3.65;1.30;;;18.80;72.70;;;;;;6091441;23;20009;-68
2021/06/23 11:20:18;;;;;;;1.98;0.93;;;18.90;72.40;;;;;;6092691;23;20003;-68
2021/06/23 11:23:25;;;;;;;6.82;1.55;;;18.90;72.50;;;;;;6092550;23;20011;-68
2021/06/23 11:26:22;;;;;;;7.45;1.77;;;19.00;72.10;;;;;;6090813;23;20477;-68
2021/06/23 11:29:08;;;;;;;7.93;2.63;;;19.00;72.00;;;;;;6089129;23;19999;-67
2021/06/23 11:32:21;;;;;;;3.58;2.15;;;19.10;72.00;;;;;;6091625;23;20450;-68
2021/06/23 11:35:27;;;;;;;8.93;2.70;;;19.20;72.10;;;;;;6090422;23;20021;-68
2021/06/23 11:38:34;;;;;;;9.82;2.30;;;19.20;71.90;;;;;;6091164;23;20321;-69
2021/06/23 11:41:40;;;;;;;5.00;1.83;;;19.30;71.70;;;;;;6092113;23;20010;-68
2021/06/23 11:44:46;;;;;;;7.70;2.00;;;19.40;71.60;;;;;;6091683;23;20053;-69
2021/06/23 11:47:52;;;;;;;9.63;2.15;;;19.50;71.40;;;;;;6113256;23;20021;-68
2021/06/23 11:50:59;;;;;;;8.73;2.58;;;19.50;71.10;;;;;;6091553;23;20077;-68
2021/06/23 11:53:26;;;;;;;;;;;19.60;70.90;;;;;;6092115;23;19998;-69
2021/06/23 11:55:53;;;;;;;9.82;5.03;;;19.70;70.60;;;;;;6090707;23;19901;-67
2021/06/23 11:58:20;;;;;;;4.43;2.58;;;19.70;70.40;;;;;;6092232;23;20029;-69
2021/06/23 12:00:47;;;;;;;7.28;1.90;;;19.70;70.20;;;;;;6090462;23;19999;-68
2021/06/23 12:03:17;;;;;;;8.93;1.77;;;19.80;70.00;;;;;;6091051;23;20007;-71
2021/06/23 12:05:44;;;;;;;8.88;1.83;;;19.80;69.50;;;;;;6091622;23;20006;-69
2021/06/23 12:08:12;;;;;;;8.45;2.00;;;19.80;69.40;;;;;;6088437;23;20020;-70
2021/06/23 12:10:40;;;;;;;10.63;1.52;;;19.70;69.90;;;;;;6091635;23;20002;-70
2021/06/23 12:13:09;;;;;;;7.68;1.17;;;19.60;70.80;;;;;;6090178;23;19999;-71
2021/06/23 12:15:36;;;;;;;3.97;1.10;;;19.60;71.20;;;;;;6091505;23;20377;-70
2021/06/23 12:18:08;;;;;;;3.35;0.90;;;19.50;71.20;;;;;;6090820;23;20002;-69
2021/06/23 12:20:37;;;;;;;4.85;0.77;;;19.40;71.10;;;;;;6092086;23;20069;-69
2021/06/23 12:23:09;;;;;;;3.75;0.88;;;19.30;71.30;;;;;;6091256;23;20041;-70
2021/06/23 12:25:39;;;;;;;2.45;0.95;;;19.20;71.70;;;;;;6090919;23;20415;-69
2021/06/23 12:28:07;;;;;;;4.57;0.88;;;19.20;72.30;;;;;;6091394;23;20526;-69
2021/06/23 12:30:34;;;;;;;5.00;1.48;;;19.10;72.90;;;;;;6090004;23;20013;-68
2021/06/23 12:33:07;;;;;;;7.18;1.73;;;19.00;73.40;;;;;;6091079;23;20418;-68
2021/06/23 12:35:34;;;;;;;4.10;1.70;;;19.00;74.30;;;;;;6090780;23;19999;-70
2021/06/23 12:38:02;;;;;;;4.43;1.60;;;18.90;74.30;;;;;;6091022;23;20021;-69
2021/06/23 12:40:30;;;;;;;5.43;1.80;;;18.90;74.60;;;;;;6092209;23;20092;-68
2021/06/23 12:42:56;;;;;;;8.05;2.33;;;18.90;74.80;;;;;;6090827;23;20041;-68
2021/06/23 12:45:48;;;;;;;7.32;2.15;;;18.80;75.70;;;;;;6091463;23;19999;-69
2021/06/23 12:48:15;;;;;;;5.15;3.40;;;18.80;75.30;;;;;;6091435;23;20021;-70
2021/06/23 12:50:42;;;;;;;6.20;2.15;;;18.70;75.40;;;;;;6093168;23;20331;-70
2021/06/23 12:53:09;;;;;;;8.50;2.25;;;18.70;75.40;;;;;;6093292;23;20009;-69
2021/06/23 12:55:37;;;;;;;5.95;1.40;;;18.70;75.50;;;;;;6092525;23;20415;-69
2021/06/23 12:58:04;;;;;;;2.47;1.02;;;18.70;75.50;;;;;;6093247;23;20010;-69
2021/06/23 13:00:31;;;;;;;2.90;1.27;;;18.70;75.60;;;;;;6092227;23;20375;-69
2021/06/23 13:02:58;;;;;;;2.17;0.98;;;18.80;75.50;;;;;;6093504;23;20061;-69
2021/06/23 13:05:24;;;;;;;4.00;0.93;;;18.80;75.30;;;;;;6092185;23;20037;-69
2021/06/23 13:07:51;;;;;;;1.90;1.00;;;18.80;75.10;;;;;;6093428;23;20056;-69
2021/06/23 13:10:19;;;;;;;4.57;3.15;;;18.90;74.90;;;;;;6092887;23;20056;-69
2021/06/23 13:12:46;;;;;;;5.43;3.97;;;18.90;74.60;;;;;;6092868;23;20002;-69
2021/06/23 13:15:18;;;;;;;6.53;3.28;;;19.00;74.40;;;;;;6093958;23;20037;-69
2021/06/23 13:18:24;;;;;;;4.72;2.40;;;19.00;74.10;;;;;;6088885;23;20318;-69
2021/06/23 13:21:30;;;;;;;2.40;1.88;;;19.00;74.00;;;;;;6092633;23;20025;-69
2021/06/23 13:23:57;;;;;;;1.33;1.17;;;19.10;74.10;;;;;;6093334;23;20356;-70
2021/06/23 13:26:25;;;;;;;2.42;1.25;;;19.10;74.40;;;;;;6090639;23;20017;-69
2021/06/23 13:28:52;;;;;;;2.42;0.93;;;19.10;73.50;;;;;;6092962;23;19999;-69
2021/06/23 13:31:18;;;;;;;4.93;1.27;;;19.10;73.30;;;;;;6090989;23;20478;-69
2021/06/23 13:33:45;;;;;;;2.70;1.77;;;19.10;73.00;;;;;;6091256;23;20451;-69
2021/06/23 13:36:12;;;;;;;3.63;1.25;;;19.20;72.70;;;;;;6092035;23;19998;-69
2021/06/23 13:38:39;;;;;;;4.60;1.73;;;19.10;72.30;;;;;;6092376;23;20053;-69